Time;durP1;ratioP1;P1;durP2;ratioP2;P2;SDS_P1;SDS_P2;PMS_P1;PMS_P2;Temp;Humidity;BMP_temperature;BMP_pressure;BME280_temperature;BME280_humidity;BME280_pressure;Samples;Min_cycle;Max_cycle;Signal;HPM_P1;HPM_P2
2022/03/02 00:01:01;;;;;;;16.05;10.57;;;7.20;99.90;;;;;;5076637;28;20494;-93
2022/03/02 00:03:27;;;;;;;16.77;10.85;;;7.20;99.90;;;;;;5058273;28;20071;-93
2022/03/02 00:05:52;;;;;;;17.30;11.38;;;7.20;99.90;;;;;;5061971;28;20028;-94
2022/03/02 00:08:18;;;;;;;15.65;11.00;;;7.10;99.90;;;;;;5076262;28;20033;-94
2022/03/02 00:10:44;;;;;;;16.55;11.18;;;7.10;99.90;;;;;;5059344;28;20039;-94
2022/03/02 00:13:10;;;;;;;16.80;11.18;;;7.10;99.90;;;;;;5076629;28;20033;-94
2022/03/02 00:15:35;;;;;;;16.05;11.15;;;7.10;99.90;;;;;;5066261;28;20032;-94
2022/03/02 00:18:01;;;;;;;20.98;11.38;;;7.10;99.90;;;;;;5077300;28;20112;-93
2022/03/02 00:20:27;;;;;;;17.95;11.90;;;7.10;99.90;;;;;;5070939;28;20111;-93
2022/03/02 00:22:53;;;;;;;17.70;11.73;;;7.10;99.90;;;;;;5071092;28;20055;-93
2022/03/02 00:25:20;;;;;;;17.98;11.75;;;7.10;99.90;;;;;;5069713;28;20096;-92
2022/03/02 00:27:47;;;;;;;17.63;11.88;;;7.10;99.90;;;;;;5070991;28;20063;-93
2022/03/02 00:30:13;;;;;;;16.88;11.68;;;7.10;99.90;;;;;;5076123;28;20040;-93
2022/03/02 00:32:40;;;;;;;16.38;11.30;;;7.10;99.90;;;;;;5070281;28;20081;-93
2022/03/02 00:35:06;;;;;;;15.27;10.32;;;7.10;99.90;;;;;;5074305;28;20052;-93
2022/03/02 00:37:32;;;;;;;14.70;10.60;;;7.10;99.90;;;;;;5070361;28;20055;-94
2022/03/02 00:39:58;;;;;;;16.23;10.70;;;7.10;99.90;;;;;;5072412;28;20528;-92
2022/03/02 00:42:24;;;;;;;18.10;11.48;;;7.10;99.90;;;;;;5072352;28;20048;-92
2022/03/02 00:44:50;;;;;;;16.13;10.65;;;7.10;99.90;;;;;;5078620;28;20028;-93
2022/03/02 00:47:16;;;;;;;17.40;11.55;;;7.10;99.90;;;;;;5082449;28;20080;-92
2022/03/02 00:49:42;;;;;;;15.60;10.45;;;7.10;99.90;;;;;;5082140;28;20020;-94
2022/03/02 00:52:10;;;;;;;17.70;11.35;;;7.10;99.90;;;;;;5081572;28;20021;-93
2022/03/02 00:54:37;;;;;;;16.63;11.15;;;7.10;99.90;;;;;;5079988;28;20020;-93
2022/03/02 00:57:03;;;;;;;15.77;10.85;;;7.10;99.90;;;;;;5078806;28;20079;-92
2022/03/02 00:59:29;;;;;;;14.57;10.25;;;7.10;99.90;;;;;;5077439;28;20052;-93
2022/03/02 01:01:54;;;;;;;17.38;11.65;;;7.00;99.90;;;;;;5077721;28;20021;-94
2022/03/02 01:04:20;;;;;;;17.92;11.15;;;7.00;99.90;;;;;;5074769;28;20064;-93
2022/03/02 01:06:46;;;;;;;15.98;10.88;;;7.00;99.90;;;;;;5066996;28;20067;-93
2022/03/02 01:09:12;;;;;;;15.23;10.65;;;7.00;99.90;;;;;;5069532;28;20036;-95
2022/03/02 01:11:38;;;;;;;15.95;11.27;;;7.00;99.90;;;;;;5069634;28;20040;-94
2022/03/02 01:14:04;;;;;;;17.60;11.23;;;7.00;99.90;;;;;;5070716;28;20017;-94
2022/03/02 01:16:30;;;;;;;17.50;11.93;;;7.00;99.90;;;;;;5067666;28;20039;-94
2022/03/02 01:18:57;;;;;;;15.80;11.10;;;7.00;99.90;;;;;;5076321;28;20039;-93
2022/03/02 01:21:22;;;;;;;17.75;11.57;;;6.90;99.90;;;;;;5057905;28;20044;-93
2022/03/02 01:23:48;;;;;;;16.42;11.57;;;6.90;99.90;;;;;;5058153;28;20056;-92
2022/03/02 01:26:14;;;;;;;17.85;11.75;;;6.90;99.90;;;;;;5057829;28;20037;-94
2022/03/02 01:28:40;;;;;;;16.13;11.50;;;6.90;99.90;;;;;;5057806;28;20036;-93
2022/03/02 01:31:07;;;;;;;17.52;11.90;;;6.90;99.90;;;;;;5058707;28;20624;-93
2022/03/02 01:33:32;;;;;;;16.13;10.65;;;6.80;99.90;;;;;;5058465;28;20039;-93
2022/03/02 01:35:58;;;;;;;15.85;10.77;;;6.80;99.90;;;;;;5053978;28;20029;-92
2022/03/02 01:38:24;;;;;;;15.80;10.82;;;6.70;99.90;;;;;;5057447;28;20029;-93
2022/03/02 01:40:50;;;;;;;17.35;11.45;;;6.70;99.90;;;;;;5056427;28;20048;-93
2022/03/02 01:43:15;;;;;;;15.40;10.90;;;6.60;99.90;;;;;;5055764;28;20039;-94
2022/03/02 01:45:41;;;;;;;17.25;11.15;;;6.60;99.90;;;;;;5055808;28;20045;-93
2022/03/02 01:48:07;;;;;;;16.15;10.88;;;6.50;99.90;;;;;;5056793;28;20048;-93
2022/03/02 01:50:33;;;;;;;17.95;11.10;;;6.50;99.90;;;;;;5056659;28;20039;-92
2022/03/02 01:52:59;;;;;;;16.65;11.73;;;6.50;99.90;;;;;;5056414;28;20482;-94
2022/03/02 01:55:25;;;;;;;17.10;11.50;;;6.50;99.90;;;;;;5055425;28;20717;-90
2022/03/02 01:57:52;;;;;;;17.20;11.68;;;6.50;99.90;;;;;;5055511;28;20570;-93
2022/03/02 02:00:20;;;;;;;17.25;11.52;;;6.50;99.90;;;;;;5055847;28;20048;-94
2022/03/02 02:02:48;;;;;;;16.90;12.07;;;6.40;99.90;;;;;;5064154;28;20343;-93
2022/03/02 02:05:15;;;;;;;17.02;11.55;;;6.40;99.90;;;;;;5062483;28;20107;-93
2022/03/02 02:07:41;;;;;;;17.50;12.32;;;6.40;99.90;;;;;;5066214;28;20033;-92
2022/03/02 02:10:08;;;;;;;20.40;12.40;;;6.40;99.90;;;;;;5074799;28;20426;-92
2022/03/02 02:12:34;;;;;;;18.17;11.88;;;6.40;99.90;;;;;;5060593;28;20115;-94
2022/03/02 02:15:01;;;;;;;18.30;11.35;;;6.40;99.90;;;;;;5057626;28;20127;-92
2022/03/02 02:17:27;;;;;;;18.17;12.48;;;6.40;99.90;;;;;;5073359;28;20021;-93
2022/03/02 02:19:53;;;;;;;18.98;12.32;;;6.40;99.90;;;;;;5073333;28;20052;-93
2022/03/02 02:22:19;;;;;;;17.73;12.18;;;6.30;99.90;;;;;;5057078;28;20124;-93
2022/03/02 02:24:45;;;;;;;18.35;12.05;;;6.30;99.90;;;;;;5056455;28;20494;-90
2022/03/02 02:27:12;;;;;;;19.50;12.55;;;6.30;99.90;;;;;;5058142;28;20371;-91
2022/03/02 02:29:39;;;;;;;17.52;12.02;;;6.30;99.90;;;;;;5058962;28;20028;-92
2022/03/02 02:32:05;;;;;;;18.75;12.57;;;6.30;99.90;;;;;;5056753;28;20127;-93
2022/03/02 02:34:31;;;;;;;19.00;12.63;;;6.30;99.90;;;;;;5056487;28;20068;-93
2022/03/02 02:36:58;;;;;;;18.15;11.95;;;6.30;99.90;;;;;;5056818;28;20396;-93
2022/03/02 02:39:25;;;;;;;18.73;12.27;;;6.30;99.90;;;;;;5056133;28;20075;-93
2022/03/02 02:41:51;;;;;;;18.23;11.52;;;6.20;99.90;;;;;;5055991;28;20135;-94
2022/03/02 02:44:16;;;;;;;19.45;11.85;;;6.20;99.90;;;;;;5055803;28;20131;-94
2022/03/02 02:46:43;;;;;;;17.10;12.30;;;6.20;99.90;;;;;;5057554;28;20050;-93
2022/03/02 02:49:10;;;;;;;15.55;11.18;;;6.20;99.90;;;;;;5057179;28;20541;-93
2022/03/02 02:51:35;;;;;;;18.38;12.68;;;6.10;99.90;;;;;;5057338;28;20029;-93
2022/03/02 02:54:02;;;;;;;18.75;12.05;;;6.10;99.90;;;;;;5057682;28;20086;-93
2022/03/02 02:56:28;;;;;;;18.27;11.90;;;6.20;99.90;;;;;;5057595;28;20029;-93
2022/03/02 02:58:54;;;;;;;16.30;11.00;;;6.10;99.90;;;;;;5057028;28;20040;-93
2022/03/02 03:01:19;;;;;;;17.17;12.20;;;6.10;99.90;;;;;;5057465;28;20035;-92
2022/03/02 03:03:46;;;;;;;16.55;12.07;;;6.20;99.90;;;;;;5059582;28;20040;-92
2022/03/02 03:06:12;;;;;;;18.73;12.32;;;6.10;99.90;;;;;;5061536;28;20174;-93
2022/03/02 03:08:38;;;;;;;15.65;11.18;;;6.10;99.90;;;;;;5062702;28;20112;-93
2022/03/02 03:11:04;;;;;;;18.73;12.50;;;6.10;99.90;;;;;;5063859;28;20033;-95
2022/03/02 03:13:29;;;;;;;20.45;13.68;;;6.20;99.90;;;;;;5062416;28;20029;-93
2022/03/02 03:15:55;;;;;;;22.38;12.82;;;6.10;99.90;;;;;;5057807;28;20032;-93
2022/03/02 03:18:21;;;;;;;18.65;13.35;;;6.10;99.90;;;;;;5057285;28;20115;-93
2022/03/02 03:20:47;;;;;;;17.77;12.23;;;6.10;99.90;;;;;;5057162;28;20627;-93
2022/03/02 03:23:13;;;;;;;19.85;12.23;;;6.10;99.90;;;;;;5057991;28;20039;-93
2022/03/02 03:25:39;;;;;;;20.83;13.23;;;6.20;99.90;;;;;;5060977;28;20111;-93
2022/03/02 03:28:04;;;;;;;18.23;12.38;;;6.10;99.90;;;;;;5060916;28;20031;-94
2022/03/02 03:30:30;;;;;;;18.00;12.23;;;6.20;99.90;;;;;;5062215;28;20112;-93
2022/03/02 03:32:56;;;;;;;18.10;12.88;;;6.20;99.90;;;;;;5063753;28;20056;-93
2022/03/02 03:35:24;;;;;;;23.23;13.93;;;6.20;99.90;;;;;;5066014;28;20033;-91
2022/03/02 03:37:49;;;;;;;18.27;12.60;;;6.20;99.90;;;;;;5051676;28;20128;-91
2022/03/02 03:40:16;;;;;;;18.63;12.82;;;6.20;99.90;;;;;;5078365;28;20488;-93
2022/03/02 03:42:42;;;;;;;19.42;12.40;;;6.20;99.90;;;;;;5074711;28;20217;-92
2022/03/02 03:45:10;;;;;;;19.98;13.15;;;6.20;99.90;;;;;;5074936;28;20082;-91
2022/03/02 03:47:35;;;;;;;18.75;12.35;;;6.20;99.90;;;;;;5072816;28;20021;-92
2022/03/02 03:50:03;;;;;;;18.48;11.90;;;6.20;99.90;;;;;;5070255;28;20032;-92
2022/03/02 03:52:28;;;;;;;18.35;12.45;;;6.10;99.90;;;;;;5071807;28;20029;-93
2022/03/02 03:54:54;;;;;;;21.08;12.93;;;6.10;99.90;;;;;;5063263;28;20028;-93
2022/03/02 03:57:20;;;;;;;16.75;11.95;;;6.10;99.90;;;;;;5059935;28;20025;-92
2022/03/02 03:59:45;;;;;;;17.33;12.20;;;6.00;99.90;;;;;;5059817;28;20037;-92
2022/03/02 04:02:11;;;;;;;16.45;11.52;;;5.90;99.90;;;;;;5060248;28;20474;-93
2022/03/02 04:04:37;;;;;;;19.98;12.95;;;5.90;99.90;;;;;;5060273;28;20025;-93
2022/03/02 04:07:03;;;;;;;18.83;13.00;;;5.90;99.90;;;;;;5060008;28;20102;-93
2022/03/02 04:09:28;;;;;;;19.13;12.52;;;5.80;99.90;;;;;;5059808;28;20412;-91
2022/03/02 04:11:54;;;;;;;17.25;11.70;;;5.70;99.90;;;;;;5059740;28;20028;-92
2022/03/02 04:14:20;;;;;;;17.08;11.45;;;5.60;99.90;;;;;;5059462;28;20127;-92
2022/03/02 04:16:45;;;;;;;19.02;12.13;;;5.60;99.90;;;;;;5060297;28;20052;-93
2022/03/02 04:19:11;;;;;;;17.58;13.13;;;5.60;99.90;;;;;;5059650;28;20474;-93
2022/03/02 04:21:37;;;;;;;16.90;12.05;;;5.50;99.90;;;;;;5059554;28;20124;-94
2022/03/02 04:24:03;;;;;;;18.15;12.07;;;5.50;99.90;;;;;;5058707;28;20025;-93
2022/03/02 04:26:28;;;;;;;18.25;12.63;;;5.40;99.90;;;;;;5059985;28;20043;-93
2022/03/02 04:28:54;;;;;;;16.73;11.20;;;5.40;99.90;;;;;;5059697;28;20036;-93
2022/03/02 04:31:20;;;;;;;17.33;12.43;;;5.40;99.90;;;;;;5059511;28;20032;-94
2022/03/02 04:33:46;;;;;;;20.02;12.55;;;5.40;99.90;;;;;;5059078;28;20028;-94
2022/03/02 04:36:12;;;;;;;18.63;12.07;;;5.40;99.90;;;;;;5059664;28;20039;-93
2022/03/02 04:38:37;;;;;;;18.17;12.82;;;5.40;99.90;;;;;;5059525;28;20032;-93
2022/03/02 04:41:03;;;;;;;18.55;12.52;;;5.40;99.90;;;;;;5043157;28;20055;-93
2022/03/02 04:43:29;;;;;;;20.90;13.05;;;5.40;99.90;;;;;;5059122;28;20520;-93
2022/03/02 04:45:55;;;;;;;20.88;13.52;;;5.40;99.90;;;;;;5059729;28;20128;-93
2022/03/02 04:48:21;;;;;;;19.25;13.40;;;5.40;99.90;;;;;;5058742;28;20032;-92
2022/03/02 04:50:47;;;;;;;18.45;12.73;;;5.40;99.90;;;;;;5042783;28;20524;-92
2022/03/02 04:53:16;;;;;;;18.73;12.32;;;5.50;99.90;;;;;;5059682;28;20063;-93
2022/03/02 04:55:44;;;;;;;18.90;12.60;;;5.50;99.90;;;;;;5071419;28;20029;-92
2022/03/02 04:58:11;;;;;;;20.95;13.45;;;5.50;99.90;;;;;;5076385;28;20029;-91
2022/03/02 05:00:37;;;;;;;18.83;12.77;;;5.50;99.90;;;;;;5062907;28;20186;-93
2022/03/02 05:03:05;;;;;;;19.85;13.20;;;5.50;99.90;;;;;;5067070;28;20674;-93
2022/03/02 05:05:33;;;;;;;17.73;12.43;;;5.50;99.90;;;;;;5068128;28;20063;-94
2022/03/02 05:07:58;;;;;;;18.85;13.10;;;5.50;99.90;;;;;;5061763;28;20035;-92
2022/03/02 05:10:26;;;;;;;20.67;12.98;;;5.50;99.90;;;;;;5060418;28;20119;-94
2022/03/02 05:12:52;;;;;;;18.83;12.48;;;5.50;99.90;;;;;;5058866;28;20108;-93
2022/03/02 05:15:19;;;;;;;18.77;12.68;;;5.40;99.90;;;;;;5059428;28;20387;-94
2022/03/02 05:17:46;;;;;;;18.92;12.68;;;5.30;99.90;;;;;;5058738;28;20752;-94
2022/03/02 05:20:14;;;;;;;19.40;13.18;;;5.30;99.90;;;;;;5059043;28;20032;-92
2022/03/02 05:22:40;;;;;;;19.70;13.43;;;5.20;99.90;;;;;;5058915;28;20040;-91
2022/03/02 05:25:08;;;;;;;20.27;12.32;;;5.20;99.90;;;;;;5058086;28;20028;-90
2022/03/02 05:27:36;;;;;;;19.75;13.07;;;5.10;99.90;;;;;;5059059;28;20029;-94
2022/03/02 05:30:04;;;;;;;18.30;12.77;;;5.00;99.90;;;;;;5058289;28;20501;-93
2022/03/02 05:32:29;;;;;;;18.90;12.15;;;5.00;99.90;;;;;;5060249;28;20035;-92
2022/03/02 05:34:55;;;;;;;21.30;13.68;;;4.90;99.90;;;;;;5064991;28;20128;-90
2022/03/02 05:37:21;;;;;;;16.70;11.95;;;4.90;99.90;;;;;;5065661;28;20135;-89
2022/03/02 05:39:47;;;;;;;19.02;12.90;;;4.80;99.90;;;;;;5064973;28;20041;-89
2022/03/02 05:42:12;;;;;;;20.42;13.23;;;4.80;99.90;;;;;;5066161;28;20037;-89
2022/03/02 05:44:38;;;;;;;19.00;12.75;;;4.70;99.90;;;;;;5065207;28;20182;-89
2022/03/02 05:47:06;;;;;;;21.20;13.10;;;4.70;99.90;;;;;;5064309;28;20032;-88
2022/03/02 05:49:34;;;;;;;21.75;13.35;;;4.60;99.90;;;;;;5065012;28;20036;-89
2022/03/02 05:52:00;;;;;;;18.55;12.75;;;4.50;99.90;;;;;;5084837;28;20430;-91
2022/03/02 05:54:35;;;;;;;19.55;13.38;;;4.50;99.90;;;;;;5065619;28;20036;-89
2022/03/02 05:57:07;;;;;;;17.42;12.15;;;4.50;99.90;;;;;;5068203;28;20059;-89
2022/03/02 05:59:33;;;;;;;18.75;12.15;;;4.40;99.90;;;;;;5061746;28;20040;-92
2022/03/02 06:01:59;;;;;;;19.98;13.13;;;4.40;99.90;;;;;;5061828;28;20162;-92
2022/03/02 06:04:24;;;;;;;18.50;12.20;;;4.40;99.90;;;;;;5056974;28;20409;-92
2022/03/02 06:06:50;;;;;;;18.40;13.02;;;4.30;99.90;;;;;;5056699;28;20031;-92
2022/03/02 06:09:17;;;;;;;20.17;14.05;;;4.20;99.90;;;;;;5058418;28;20028;-93
2022/03/02 06:11:44;;;;;;;20.88;12.77;;;4.20;99.90;;;;;;5059554;28;20052;-94
2022/03/02 06:14:23;;;;;;;19.80;12.70;;;4.20;99.90;;;;;;5058250;28;20519;-93
2022/03/02 06:16:49;;;;;;;18.92;12.20;;;4.20;99.90;;;;;;5057980;28;20071;-92
2022/03/02 06:19:15;;;;;;;20.95;13.45;;;4.10;99.90;;;;;;5058671;28;20494;-94
2022/03/02 06:21:43;;;;;;;19.15;11.95;;;4.10;99.90;;;;;;5038328;28;20037;-95
2022/03/02 06:24:10;;;;;;;20.58;13.77;;;4.10;99.90;;;;;;5057102;28;20043;-93
2022/03/02 06:26:36;;;;;;;18.92;12.23;;;4.10;99.90;;;;;;5057576;28;20037;-94
2022/03/02 06:29:07;;;;;;;19.88;12.98;;;4.10;99.90;;;;;;5058021;28;20094;-95
2022/03/02 06:32:05;;;;;;;20.00;12.88;;;4.00;99.90;;;;;;5059070;28;20569;-94
2022/03/02 06:34:45;;;;;;;18.92;12.40;;;4.00;99.90;;;;;;5064501;28;20041;-93
2022/03/02 06:37:20;;;;;;;18.95;12.90;;;4.00;99.90;;;;;;5055373;28;20508;-92
2022/03/02 06:39:57;;;;;;;18.23;12.13;;;4.00;99.90;;;;;;5086644;28;20141;-93
2022/03/02 06:42:59;;;;;;;18.73;12.43;;;4.00;99.90;;;;;;5066667;28;20055;-93
2022/03/02 06:47:09;;;;;;;;;;;;;;;;;;;;;
2022/03/02 06:50:03;;;;;;;21.73;11.73;;;4.00;99.90;;;;;;4917099;29;20036;-95
2022/03/02 06:52:42;;;;;;;18.55;11.32;;;4.00;99.90;;;;;;4904525;29;20060;-95
2022/03/02 06:55:15;;;;;;;18.13;11.75;;;4.00;99.90;;;;;;5015497;28;20491;-94
2022/03/02 06:58:04;;;;;;;19.48;12.93;;;4.00;99.90;;;;;;5020681;28;20045;-92
2022/03/02 07:00:34;;;;;;;17.73;11.77;;;4.10;99.90;;;;;;5025358;28;20045;-93
2022/03/02 07:03:59;;;;;;;;;;;;;;;;;;;;;
2022/03/02 07:06:57;;;;;;;20.42;13.85;;;4.10;99.90;;;;;;5016472;28;20037;-93
2022/03/02 07:09:23;;;;;;;20.67;13.57;;;4.10;99.90;;;;;;5050009;28;20136;-96
2022/03/02 07:12:11;;;;;;;21.85;13.70;;;4.10;99.90;;;;;;5055864;28;20120;-92
2022/03/02 07:15:16;;;;;;;;;;;;;;;;;;;;;
2022/03/02 07:18:03;;;;;;;21.67;14.02;;;4.10;99.90;;;;;;5051952;28;20053;-93
2022/03/02 07:20:55;;;;;;;24.15;14.85;;;4.10;99.90;;;;;;5032470;28;20037;-91
2022/03/02 09:40:10;;;;;;;18.95;14.02;;;10.20;99.90;;;;;;5495001;23;20140;-93
2022/03/02 09:42:45;;;;;;;17.30;12.73;;;11.90;99.90;;;;;;4905683;29;20067;-93
2022/03/02 09:45:12;;;;;;;18.42;13.10;;;13.20;99.90;;;;;;4888705;29;20041;-93
2022/03/02 09:47:53;;;;;;;16.05;11.95;;;14.40;99.90;;;;;;4890053;29;20024;-95
2022/03/02 09:50:20;;;;;;;16.20;12.15;;;15.40;99.90;;;;;;4914235;23;21313;-96
2022/03/02 09:53:35;;;;;;;16.65;12.32;;;16.10;99.90;;;;;;4892214;29;20048;-96
2022/03/02 09:56:06;;;;;;;17.30;13.55;;;16.70;99.90;;;;;;5102411;23;20089;-93
2022/03/02 09:58:42;;;;;;;21.10;16.60;;;17.20;99.90;;;;;;4904947;29;20135;-95
2022/03/02 11:01:52;;;;;;;17.63;14.73;;;21.20;74.80;;;;;;3854293;23;20467;-92
2022/03/02 11:04:36;;;;;;;17.90;14.13;;;21.00;73.10;;;;;;4896640;29;20071;-95
2022/03/02 11:07:03;;;;;;;17.98;14.77;;;20.90;73.00;;;;;;4924167;23;20048;-96
2022/03/02 11:09:33;;;;;;;17.90;13.32;;;20.90;73.50;;;;;;4901290;29;20076;-95
2022/03/02 11:12:00;;;;;;;17.75;13.43;;;21.00;72.30;;;;;;4912084;29;20284;-95
2022/03/02 11:14:29;;;;;;;18.90;14.55;;;21.10;71.30;;;;;;4893480;29;20037;-96
2022/03/02 11:17:13;;;;;;;17.05;14.10;;;21.20;70.10;;;;;;4898876;29;20272;-95
2022/03/02 11:19:46;;;;;;;17.33;14.80;;;21.10;69.40;;;;;;4879418;29;20025;-93
2022/03/02 11:22:16;;;;;;;14.82;12.85;;;20.90;69.20;;;;;;4895220;29;20037;-94
2022/03/02 11:24:42;;;;;;;15.27;12.23;;;21.10;69.80;;;;;;4885741;29;20555;-90
2022/03/02 11:27:27;;;;;;;14.45;12.45;;;21.30;68.60;;;;;;4893774;29;20043;-94
2022/03/02 11:30:07;;;;;;;15.25;12.70;;;21.30;69.20;;;;;;4872881;29;20587;-94
2022/03/02 11:32:35;;;;;;;13.90;11.35;;;21.40;68.80;;;;;;4880507;29;20056;-93
2022/03/02 11:35:05;;;;;;;13.55;11.40;;;21.60;68.10;;;;;;4889971;29;20027;-93
2022/03/02 11:37:32;;;;;;;14.18;11.30;;;21.70;67.70;;;;;;4889383;29;20048;-93
2022/03/02 11:39:58;;;;;;;13.23;10.73;;;21.90;67.70;;;;;;4872200;29;20072;-95
2022/03/02 11:42:30;;;;;;;12.82;11.25;;;22.30;67.40;;;;;;4881285;29;20575;-95
2022/03/02 11:44:57;;;;;;;12.77;10.15;;;22.80;67.10;;;;;;4885346;29;20041;-94
2022/03/02 11:47:39;;;;;;;12.60;10.95;;;22.90;66.30;;;;;;4876340;29;20193;-96
2022/03/02 11:50:11;;;;;;;13.43;11.32;;;23.10;66.10;;;;;;4879302;29;20044;-96
2022/03/02 11:55:46;;;;;;;11.98;10.68;;;23.30;64.70;;;;;;5804782;23;20074;-95
2022/03/02 11:58:11;;;;;;;13.77;10.65;;;23.20;64.60;;;;;;4904578;29;20048;-93
2022/03/02 12:00:37;;;;;;;13.00;11.35;;;23.00;63.70;;;;;;4892172;29;20037;-93
2022/03/02 12:03:08;;;;;;;13.50;11.00;;;22.80;63.00;;;;;;4896002;29;20040;-93
2022/03/02 12:05:34;;;;;;;12.45;10.23;;;22.60;63.20;;;;;;4892058;29;20041;-94
2022/03/02 12:08:16;;;;;;;12.63;10.55;;;22.50;64.50;;;;;;4913724;29;20059;-94
2022/03/02 12:10:52;;;;;;;15.40;11.52;;;22.60;63.50;;;;;;4902511;29;20025;-94
2022/03/02 12:13:18;;;;;;;14.77;11.95;;;22.70;62.90;;;;;;4895890;29;20587;-94
2022/03/02 12:15:47;;;;;;;13.82;11.70;;;22.80;61.50;;;;;;4874636;29;20029;-96
2022/03/02 13:11:01;;;;;;;11.48;10.02;;;23.80;58.20;;;;;;1605007;23;20428;-91
2022/03/02 13:13:47;;;;;;;10.27;9.18;;;23.70;56.80;;;;;;4886750;29;20062;-91
2022/03/02 13:16:28;;;;;;;11.18;9.05;;;23.60;57.10;;;;;;4887397;29;20032;-92
2022/03/02 13:18:58;;;;;;;11.48;9.63;;;23.70;57.10;;;;;;4885299;29;20051;-93
2022/03/02 13:21:36;;;;;;;10.73;9.13;;;23.50;56.50;;;;;;4889160;29;20052;-94
2022/03/02 13:24:22;;;;;;;11.73;9.75;;;23.50;57.00;;;;;;4890861;29;20115;-94
2022/03/02 13:26:56;;;;;;;11.25;9.20;;;23.20;55.20;;;;;;4896364;29;20035;-93
2022/03/02 13:32:16;;;;;;;11.27;9.43;;;23.20;56.40;;;;;;4915227;23;20143;-94
2022/03/02 13:35:07;;;;;;;9.98;8.65;;;23.20;56.40;;;;;;4896628;29;20427;-94
2022/03/02 13:37:57;;;;;;;10.23;8.13;;;23.20;56.30;;;;;;4904077;29;20079;-93
2022/03/02 13:40:32;;;;;;;9.02;7.68;;;23.20;56.00;;;;;;4904351;29;20047;-95
2022/03/02 13:43:10;;;;;;;10.07;8.25;;;23.10;56.30;;;;;;4904971;29;20039;-95
2022/03/02 13:45:44;;;;;;;9.77;8.00;;;23.10;55.40;;;;;;4889140;29;20051;-92
2022/03/02 13:48:23;;;;;;;9.15;7.70;;;23.00;56.20;;;;;;4892068;29;20036;-92
2022/03/02 13:51:03;;;;;;;8.75;7.63;;;23.10;56.10;;;;;;4897798;29;20049;-94
2022/03/02 13:53:55;;;;;;;10.10;8.05;;;23.30;55.20;;;;;;5002726;23;20056;-91
2022/03/02 13:56:31;;;;;;;9.93;8.50;;;23.10;55.10;;;;;;4883862;29;20025;-93
2022/03/02 13:59:00;;;;;;;9.95;7.30;;;23.00;55.10;;;;;;4895079;29;20040;-91
2022/03/02 14:01:31;;;;;;;9.40;7.63;;;23.10;55.50;;;;;;4892866;29;20033;-93
2022/03/02 14:04:12;;;;;;;9.98;7.05;;;23.20;54.70;;;;;;4907861;29;20422;-95
2022/03/02 14:06:42;;;;;;;9.73;7.18;;;23.00;55.60;;;;;;4885637;29;20037;-96
2022/03/02 14:09:11;;;;;;;7.30;6.03;;;23.10;55.20;;;;;;4885195;29;20040;-94
2022/03/02 14:11:43;;;;;;;7.43;6.53;;;23.10;55.20;;;;;;4867725;29;20048;-93
2022/03/02 14:14:29;;;;;;;7.13;6.00;;;23.10;55.00;;;;;;4891997;29;20043;-93
2022/03/02 14:17:11;;;;;;;7.28;5.68;;;22.60;54.00;;;;;;4914085;29;20066;-93
2022/03/02 14:19:43;;;;;;;8.65;6.07;;;21.60;53.50;;;;;;4887318;29;20043;-95
2022/03/02 14:22:17;;;;;;;8.55;5.50;;;20.20;55.20;;;;;;4885702;29;20509;-94
2022/03/02 14:24:47;;;;;;;7.93;6.03;;;19.10;55.40;;;;;;4890130;29;20108;-94
2022/03/02 14:27:22;;;;;;;7.57;5.80;;;18.20;56.30;;;;;;4882897;29;20403;-94
2022/03/02 14:29:53;;;;;;;8.32;6.60;;;17.60;56.80;;;;;;4867140;29;20052;-96
2022/03/02 14:32:30;;;;;;;7.72;5.78;;;17.10;57.10;;;;;;4884197;29;20029;-96
2022/03/02 14:35:00;;;;;;;7.32;5.78;;;16.70;58.00;;;;;;4900756;29;20107;-96
2022/03/02 14:37:32;;;;;;;7.53;5.38;;;16.90;58.80;;;;;;4928100;29;20036;-94
2022/03/02 14:40:16;;;;;;;7.40;5.57;;;17.70;58.70;;;;;;4892089;29;20056;-95
2022/03/02 14:42:51;;;;;;;7.95;6.10;;;18.10;57.60;;;;;;4885878;29;20037;-95
2022/03/02 14:45:37;;;;;;;8.32;6.68;;;17.60;57.00;;;;;;4883186;29;20070;-96
2022/03/02 14:48:08;;;;;;;9.73;5.90;;;16.80;57.00;;;;;;4897445;29;20036;-94
2022/03/02 14:50:55;;;;;;;8.27;6.07;;;16.00;57.60;;;;;;4874494;29;20065;-96
2022/03/02 14:53:26;;;;;;;7.30;5.50;;;15.50;58.80;;;;;;4885259;29;20048;-92
2022/03/02 14:55:55;;;;;;;7.72;6.07;;;15.20;60.40;;;;;;4904178;29;20494;-96
2022/03/02 14:59:07;;;;;;;7.00;5.65;;;15.00;62.40;;;;;;4888462;29;20135;-94
2022/03/02 15:01:34;;;;;;;6.68;5.00;;;14.80;62.80;;;;;;4860884;29;20041;-93
2022/03/02 15:04:04;;;;;;;7.45;5.60;;;14.60;64.50;;;;;;4888139;29;20036;-93
